Time;durP1;ratioP1;P1;durP2;ratioP2;P2;SDS_P1;SDS_P2;PMS_P1;PMS_P2;Temp;Humidity;BMP_temperature;BMP_pressure;BME280_temperature;BME280_humidity;BME280_pressure;Samples;Min_cycle;Max_cycle;Signal;HPM_P1;HPM_P2
2023/10/27 00:09:45;;;;;;;2.07;1.10;;;;;;;;;;20530425;28;20209;-88
2023/10/27 00:19:47;;;;;;;6.80;1.27;;;;;;;;;;20545663;28;20227;-89
2023/10/27 00:29:49;;;;;;;1.77;0.97;;;;;;;;;;20511434;28;20248;-86
2023/10/27 00:39:50;;;;;;;4.37;1.20;;;;;;;;;;20540451;28;20665;-88
2023/10/27 00:49:52;;;;;;;6.40;1.10;;;;;;;;;;20521040;28;20656;-87
2023/10/27 00:59:54;;;;;;;2.33;1.10;;;;;;;;;;20559494;28;20217;-89
2023/10/27 01:09:56;;;;;;;3.93;1.60;;;;;;;;;;20507810;28;20582;-90
2023/10/27 01:20:00;;;;;;;3.03;1.10;;;;;;;;;;20540857;28;20267;-88
2023/10/27 01:30:02;;;;;;;1.63;0.90;;;;;;;;;;20588749;28;20263;-90
2023/10/27 01:40:04;;;;;;;3.37;1.40;;;;;;;;;;20564695;28;20220;-89
2023/10/27 01:50:06;;;;;;;3.73;1.63;;;;;;;;;;20566133;28;20237;-89
2023/10/27 02:00:09;;;;;;;4.93;1.67;;;;;;;;;;20518485;28;20689;-89
2023/10/27 02:10:14;;;;;;;2.20;1.10;;;;;;;;;;20531971;28;20217;-89
2023/10/27 02:20:16;;;;;;;2.10;1.10;;;;;;;;;;20553622;28;20586;-90
2023/10/27 02:30:17;;;;;;;2.10;1.20;;;;;;;;;;20503552;28;20220;-88
2023/10/27 02:40:19;;;;;;;1.97;0.90;;;;;;;;;;20553791;28;20224;-89
2023/10/27 02:50:21;;;;;;;3.07;0.80;;;;;;;;;;20563380;28;20245;-90
2023/10/27 03:00:22;;;;;;;2.23;0.87;;;;;;;;;;20542149;28;20286;-89
2023/10/27 03:10:25;;;;;;;3.03;0.70;;;;;;;;;;20585322;28;20283;-89
2023/10/27 03:20:28;;;;;;;1.37;0.70;;;;;;;;;;20570083;28;20745;-90
2023/10/27 03:30:30;;;;;;;2.10;0.60;;;;;;;;;;20536019;28;20675;-88
2023/10/27 03:40:31;;;;;;;0.83;0.60;;;;;;;;;;20531174;28;20252;-87
2023/10/27 03:50:33;;;;;;;1.30;0.50;;;;;;;;;;20531674;28;20276;-86
2023/10/27 04:00:35;;;;;;;1.50;0.60;;;;;;;;;;20527368;28;20228;-88
2023/10/27 04:10:37;;;;;;;1.33;0.53;;;11.40;99.90;;;;;;20534192;28;20220;-88
2023/10/27 04:20:39;;;;;;;1.37;0.70;;;;;;;;;;20544654;28;20228;-89
2023/10/27 04:30:41;;;;;;;1.17;0.57;;;;;;;;;;20547778;28;20259;-89
2023/10/27 04:40:43;;;;;;;0.63;0.50;;;;;;;;;;20551318;28;20232;-88
2023/10/27 04:50:45;;;;;;;3.73;0.63;;;;;;;;;;20561744;28;20686;-88
2023/10/27 05:00:46;;;;;;;1.23;0.60;;;;;;;;;;20548468;28;20205;-88
2023/10/27 05:10:48;;;;;;;0.40;0.30;;;;;;;;;;20553692;28;20216;-88
2023/10/27 05:20:50;;;;;;;2.83;1.10;;;;;;;;;;20567273;28;20339;-86
2023/10/27 05:30:53;;;;;;;0.80;0.60;;;;;;;;;;20581542;28;20216;-87
2023/10/27 05:40:55;;;;;;;1.67;0.57;;;;;;;;;;20552645;28;20232;-87
2023/10/27 05:50:57;;;;;;;0.97;0.40;;;;;;;;;;20559795;28;20233;-86
2023/10/27 06:00:58;;;;;;;0.87;0.50;;;;;;;;;;20534721;28;20217;-86
2023/10/27 06:11:00;;;;;;;0.47;0.30;;;;;;;;;;20547877;28;20267;-86
2023/10/27 06:21:01;;;;;;;0.30;0.30;;;;;;;;;;20575211;28;20237;-87
2023/10/27 06:31:03;;;;;;;1.17;0.50;;;;;;;;;;20555167;28;20224;-88
2023/10/27 06:41:05;;;;;;;0.40;0.40;;;;;;;;;;20520225;28;20225;-87
2023/10/27 06:51:08;;;;;;;0.20;0.20;;;;;;;;;;20534701;28;20204;-86
2023/10/27 07:01:10;;;;;;;0.50;0.27;;;;;;;;;;20530493;28;20228;-86
2023/10/27 07:11:11;;;;;;;1.60;0.30;;;;;;;;;;20519258;28;20287;-87
2023/10/27 07:21:13;;;;;;;1.90;0.33;;;;;;;;;;20532581;28;20232;-88
2023/10/27 07:31:15;;;;;;;1.40;0.30;;;;;;;;;;20529985;28;20192;-87
2023/10/27 07:41:17;;;;;;;0.20;0.20;;;;;;;;;;20500477;28;20216;-88
2023/10/27 07:51:18;;;;;;;0.33;0.33;;;;;;;;;;20541763;28;20220;-87
2023/10/27 08:01:20;;;;;;;0.30;0.30;;;;;;;;;;20572540;28;20232;-87
2023/10/27 08:11:23;;;;;;;0.20;0.20;;;;;;;;;;20539284;28;20217;-87
2023/10/27 08:21:26;;;;;;;1.27;0.30;;;;;;;;;;20501542;28;20774;-88
2023/10/27 08:31:27;;;;;;;0.20;0.20;;;;;;;;;;20510702;28;20221;-86
2023/10/27 08:41:29;;;;;;;0.43;0.30;;;;;;;;;;20542143;28;20279;-86
2023/10/27 08:51:32;;;;;;;0.20;0.20;;;12.10;99.90;;;;;;20506932;28;20291;-86
2023/10/27 09:01:34;;;;;;;1.27;0.40;;;;;;;;;;20534199;28;20375;-86
2023/10/27 09:11:40;;;;;;;0.40;0.40;;;;;;;;;;20544072;28;20217;-89
2023/10/27 09:21:44;;;;;;;0.20;0.20;;;;;;;;;;20529020;28;20252;-86
2023/10/27 09:31:46;;;;;;;0.80;0.40;;;;;;;;;;20580463;28;20597;-87
2023/10/27 09:42:02;;;;;;;1.10;0.40;;;13.10;99.90;;;;;;20568236;28;20294;-85
2023/10/27 09:52:10;;;;;;;1.70;0.50;;;;;;;;;;20524575;28;20228;-86
2023/10/27 10:02:12;;;;;;;0.93;0.40;;;;;;;;;;20535142;28;20233;-85
2023/10/27 10:12:14;;;;;;;0.80;0.40;;;;;;;;;;20546808;28;20228;-86
2023/10/27 10:22:35;;;;;;;0.50;0.30;;;;;;;;;;20517346;28;20257;-84
2023/10/27 10:32:38;;;;;;;1.47;0.47;;;;;;;;;;20542608;28;20316;-86
2023/10/27 10:43:24;;;;;;;2.47;0.50;;;13.40;99.90;;;;;;20543396;28;20252;-86
2023/10/27 10:53:26;;;;;;;0.70;0.40;;;;;;;;;;20487210;28;20685;-86
2023/10/27 11:03:31;;;;;;;1.27;0.53;;;;;;;;;;20531343;28;20233;-87
2023/10/27 11:13:39;;;;;;;1.20;0.50;;;13.80;99.90;;;;;;20625154;28;20677;-87
2023/10/27 11:23:41;;;;;;;1.07;0.47;;;;;;;;;;20552200;28;20358;-86
2023/10/27 11:34:01;;;;;;;0.63;0.40;;;;;;;;;;20562994;28;20678;-87
2023/10/27 11:44:03;;;;;;;0.90;0.40;;;;;;;;;;20525128;28;20229;-86
2023/10/27 11:54:05;;;;;;;0.90;0.60;;;;;;;;;;20511759;28;20303;-86
2023/10/27 12:04:07;;;;;;;0.30;0.30;;;;;;;;;;20498563;28;20228;-85
2023/10/27 12:14:12;;;;;;;0.77;0.33;;;;;;;;;;20551278;28;20229;-85
2023/10/27 12:24:15;;;;;;;0.57;0.37;;;;;;;;;;20518603;28;20244;-87
2023/10/27 12:34:17;;;;;;;0.40;0.33;;;;;;;;;;20531265;28;20213;-86
2023/10/27 12:44:18;;;;;;;0.33;0.30;;;;;;;;;;20553960;28;20286;-87
2023/10/27 12:54:20;;;;;;;0.63;0.40;;;;;;;;;;20494817;28;20247;-87
2023/10/27 13:04:23;;;;;;;1.13;0.50;;;;;;;;;;20534937;28;20765;-88
2023/10/27 13:14:25;;;;;;;0.40;0.40;;;;;;;;;;20503393;28;20244;-87
2023/10/27 13:24:27;;;;;;;0.77;0.47;;;;;;;;;;20527013;28;20256;-87
2023/10/27 13:34:29;;;;;;;0.77;0.57;;;;;;;;;;20523042;28;20244;-86
2023/10/27 13:44:31;;;;;;;1.20;0.57;;;;;;;;;;20536550;28;20237;-85
2023/10/27 13:54:33;;;;;;;2.90;1.40;;;;;;;;;;20574654;28;20223;-85
2023/10/27 14:04:35;;;;;;;0.80;0.40;;;;;;;;;;20576684;28;20233;-85
2023/10/27 14:14:37;;;;;;;1.20;0.50;;;;;;;;;;20538509;28;20274;-85
2023/10/27 14:24:39;;;;;;;0.80;0.50;;;;;;;;;;20568529;28;20232;-85
2023/10/27 14:34:42;;;;;;;1.67;0.63;;;;;;;;;;20538866;28;20272;-86
2023/10/27 14:44:44;;;;;;;0.60;0.43;;;;;;;;;;20553506;28;21782;-84
2023/10/27 14:54:46;;;;;;;0.77;0.33;;;;;;;;;;20531519;28;20650;-85
2023/10/27 15:04:49;;;;;;;1.23;0.77;;;;;;;;;;20535002;28;20237;-85
2023/10/27 15:14:52;;;;;;;0.57;0.30;;;;;;;;;;20546021;28;20229;-85
2023/10/27 15:24:54;;;;;;;1.30;0.53;;;;;;;;;;20565903;28;20237;-85
2023/10/27 15:34:57;;;;;;;0.30;0.30;;;;;;;;;;20529449;28;20220;-84
2023/10/27 15:44:59;;;;;;;0.50;0.43;;;;;;;;;;20506227;28;20224;-84
2023/10/27 15:55:01;;;;;;;0.47;0.37;;;;;;;;;;20558815;28;20256;-84
2023/10/27 16:05:05;;;;;;;0.70;0.50;;;;;;;;;;20531013;28;20694;-85
2023/10/27 16:15:07;;;;;;;1.80;0.60;;;;;;;;;;20553468;28;20221;-85
2023/10/27 16:25:10;;;;;;;0.93;0.50;;;;;;;;;;20540447;28;20294;-85
2023/10/27 16:35:15;;;;;;;1.83;0.50;;;;;;;;;;20603638;28;20294;-85
2023/10/27 16:45:18;;;;;;;0.93;0.40;;;;;;;;;;20565124;28;20283;-83
2023/10/27 16:55:20;;;;;;;0.40;0.40;;;;;;;;;;20583357;28;20306;-85
2023/10/27 17:05:22;;;;;;;1.10;0.60;;;;;;;;;;20547220;28;20584;-85
2023/10/27 17:15:24;;;;;;;1.30;0.73;;;;;;;;;;20517004;28;20422;-85
2023/10/27 17:25:26;;;;;;;1.63;1.00;;;;;;;;;;20546160;28;20228;-86
2023/10/27 17:35:29;;;;;;;4.00;1.90;;;;;;;;;;20570443;28;20213;-85
2023/10/27 17:45:35;;;;;;;2.20;1.30;;;;;;;;;;20547700;28;20260;-85
2023/10/27 17:55:38;;;;;;;2.40;1.30;;;;;;;;;;20534767;28;20224;-85
2023/10/27 18:05:40;;;;;;;2.50;1.37;;;;;;;;;;20540802;28;20769;-85
2023/10/27 18:15:43;;;;;;;2.43;1.07;;;;;;;;;;20552405;28;20213;-85
2023/10/27 18:25:46;;;;;;;3.20;0.90;;;;;;;;;;20546731;28;20228;-85
2023/10/27 18:35:50;;;;;;;0.73;0.50;;;;;;;;;;20557598;28;20216;-86
2023/10/27 18:45:56;;;;;;;1.77;0.70;;;;;;;;;;20542491;28;20228;-85
2023/10/27 18:56:01;;;;;;;1.77;0.60;;;;;;;;;;20574755;28;20224;-84
2023/10/27 19:06:04;;;;;;;2.40;0.50;;;;;;;;;;20580113;28;20220;-84
2023/10/27 19:16:08;;;;;;;3.90;0.83;;;;;;;;;;20578111;28;20264;-84
2023/10/27 19:26:17;;;;;;;1.57;0.50;;;12.60;99.90;;;;;;20545768;28;20256;-84
2023/10/27 19:36:23;;;;;;;1.13;0.53;;;;;;;;;;20552935;28;20252;-85
2023/10/27 19:46:26;;;;;;;1.53;0.70;;;;;;;;;;20520943;28;20225;-85
2023/10/27 19:56:28;;;;;;;1.43;0.70;;;;;;;;;;20532141;28;20229;-86
2023/10/27 20:06:29;;;;;;;3.40;0.70;;;;;;;;;;20547798;28;20577;-85
2023/10/27 20:16:33;;;;;;;0.70;0.53;;;;;;;;;;20529138;28;20279;-86
2023/10/27 20:26:38;;;;;;;4.70;0.60;;;;;;;;;;20545035;28;20233;-87
2023/10/27 20:36:39;;;;;;;4.63;0.60;;;;;;;;;;20540134;28;20220;-85
2023/10/27 20:46:41;;;;;;;2.47;0.50;;;;;;;;;;20552818;28;20241;-86
2023/10/27 20:56:43;;;;;;;0.47;0.40;;;;;;;;;;20523085;28;20225;-86
2023/10/27 21:06:45;;;;;;;1.17;0.50;;;;;;;;;;20553048;28;20904;-85
2023/10/27 21:16:47;;;;;;;0.43;0.30;;;;;;;;;;20535645;28;20283;-86
2023/10/27 21:26:48;;;;;;;1.47;0.83;;;;;;;;;;20521409;28;20233;-86
2023/10/27 21:36:51;;;;;;;1.60;0.50;;;;;;;;;;20555058;28;20275;-85
2023/10/27 21:46:52;;;;;;;1.00;0.43;;;;;;;;;;20524334;28;20224;-87
2023/10/27 21:56:54;;;;;;;3.93;0.70;;;;;;;;;;20597574;28;20629;-85
2023/10/27 22:06:56;;;;;;;1.27;0.60;;;12.10;99.90;;;;;;20539371;28;20283;-85
2023/10/27 22:16:59;;;;;;;2.93;0.60;;;;;;;;;;20560087;28;20241;-84
2023/10/27 22:27:00;;;;;;;0.50;0.40;;;;;;;;;;20571322;28;20646;-86
2023/10/27 22:37:02;;;;;;;0.60;0.43;;;;;;;;;;20550937;28;20228;-84
2023/10/27 22:47:05;;;;;;;1.43;0.67;;;;;;;;;;20506372;28;20276;-86
2023/10/27 22:57:06;;;;;;;2.50;0.60;;;;;;;;;;20541541;28;20709;-85
2023/10/27 23:07:09;;;;;;;0.90;0.60;;;;;;;;;;20544730;28;20272;-85
2023/10/27 23:17:10;;;;;;;0.40;0.40;;;;;;;;;;20530040;28;20606;-86
2023/10/27 23:27:14;;;;;;;0.40;0.37;;;;;;;;;;20554414;28;20287;-86
2023/10/27 23:37:17;;;;;;;0.97;0.40;;;;;;;;;;20528449;28;20217;-86
2023/10/27 23:47:19;;;;;;;0.37;0.37;;;;;;;;;;20541748;28;20730;-86
2023/10/27 23:57:21;;;;;;;0.60;0.40;;;;;;;;;;20563301;28;20579;-85
